Time;durP1;ratioP1;P1;durP2;ratioP2;P2;SDS_P1;SDS_P2;PMS_P1;PMS_P2;Temp;Humidity;BMP_temperature;BMP_pressure;BME280_temperature;BME280_humidity;BME280_pressure;Samples;Min_cycle;Max_cycle;Signal;HPM_P1;HPM_P2
2021/11/01 00:01:29;;;;;;;4.15;1.80;;;18.00;67.60;;;;;;5072189;28;20166;-60
2021/11/01 00:03:55;;;;;;;2.50;1.50;;;18.00;67.70;;;;;;5073435;28;20190;-60
2021/11/01 00:06:20;;;;;;;3.45;1.60;;;18.00;67.70;;;;;;5073698;28;20183;-59
2021/11/01 00:08:46;;;;;;;3.63;1.92;;;18.00;67.60;;;;;;5072579;28;20182;-60
2021/11/01 00:11:11;;;;;;;3.35;1.92;;;18.00;67.50;;;;;;5073583;28;20174;-59
2021/11/01 00:13:37;;;;;;;4.03;1.80;;;18.00;67.50;;;;;;5072377;28;20636;-61
2021/11/01 00:16:03;;;;;;;4.65;1.65;;;18.00;67.50;;;;;;5073169;28;20179;-60
2021/11/01 00:18:28;;;;;;;4.22;1.60;;;18.00;67.50;;;;;;5073096;28;20178;-61
2021/11/01 00:20:54;;;;;;;5.55;2.35;;;18.00;67.50;;;;;;5072602;28;20220;-60
2021/11/01 00:23:19;;;;;;;2.53;1.80;;;18.00;67.50;;;;;;5073029;28;20175;-60
2021/11/01 00:25:45;;;;;;;5.07;2.15;;;18.00;67.40;;;;;;5072795;28;20684;-60
2021/11/01 00:28:11;;;;;;;3.67;1.55;;;18.00;67.50;;;;;;5072218;28;20162;-61
2021/11/01 00:30:37;;;;;;;2.78;1.90;;;18.00;67.40;;;;;;5072738;28;20216;-61
2021/11/01 00:33:02;;;;;;;3.30;1.90;;;17.90;67.30;;;;;;5072896;28;20190;-61
2021/11/01 00:35:29;;;;;;;4.57;2.15;;;17.90;67.40;;;;;;5072199;28;20166;-61
2021/11/01 00:37:54;;;;;;;3.10;1.70;;;17.90;67.30;;;;;;5073123;28;20174;-61
2021/11/01 00:40:20;;;;;;;4.88;2.00;;;17.90;67.30;;;;;;5073046;28;20174;-60
2021/11/01 00:42:45;;;;;;;4.15;1.63;;;17.90;67.30;;;;;;5071776;28;20208;-61
2021/11/01 00:45:11;;;;;;;3.22;1.83;;;17.90;67.20;;;;;;5072588;28;20596;-61
2021/11/01 00:47:37;;;;;;;4.43;1.42;;;17.90;67.30;;;;;;5072281;28;20187;-61
2021/11/01 00:50:03;;;;;;;4.53;2.22;;;17.90;67.20;;;;;;5072146;28;20182;-61
2021/11/01 00:52:30;;;;;;;3.15;1.63;;;17.90;67.20;;;;;;5072556;28;20560;-61
2021/11/01 00:55:01;;;;;;;3.78;2.00;;;17.90;67.20;;;;;;5072731;28;20183;-61
2021/11/01 00:57:26;;;;;;;3.10;1.85;;;17.90;67.20;;;;;;5071812;28;20204;-62
2021/11/01 00:59:52;;;;;;;3.47;1.88;;;17.90;67.20;;;;;;5072292;28;20264;-63
2021/11/01 01:02:18;;;;;;;2.47;1.60;;;17.90;67.10;;;;;;5072623;28;20638;-62
2021/11/01 01:04:46;;;;;;;4.78;1.45;;;17.90;67.20;;;;;;5071539;28;20210;-61
2021/11/01 01:07:11;;;;;;;2.83;1.60;;;17.90;67.10;;;;;;5071227;28;20171;-60
2021/11/01 01:09:37;;;;;;;2.80;1.50;;;17.90;67.10;;;;;;5071973;28;20686;-60
2021/11/01 01:12:04;;;;;;;3.15;1.67;;;17.90;67.10;;;;;;5071578;28;20174;-61
2021/11/01 01:14:31;;;;;;;4.20;1.77;;;17.80;67.10;;;;;;5071348;28;20636;-61
2021/11/01 01:17:00;;;;;;;3.63;1.63;;;17.80;67.00;;;;;;5071231;28;20174;-62
2021/11/01 01:19:30;;;;;;;2.28;1.70;;;17.80;67.10;;;;;;5072377;28;20194;-61
2021/11/01 01:22:21;;;;;;;5.43;1.50;;;17.80;66.90;;;;;;5072298;28;20182;-62
2021/11/01 01:24:47;;;;;;;2.65;1.75;;;17.80;66.90;;;;;;5071045;28;20389;-61
2021/11/01 01:27:12;;;;;;;3.78;1.60;;;17.80;66.90;;;;;;5072030;28;20281;-61
2021/11/01 01:29:38;;;;;;;2.75;1.60;;;17.80;66.80;;;;;;5071543;28;20174;-62
2021/11/01 01:32:05;;;;;;;2.72;1.80;;;17.80;66.90;;;;;;5071486;28;20186;-62
2021/11/01 01:34:31;;;;;;;5.55;2.20;;;17.80;66.90;;;;;;5071954;28;20174;-61
2021/11/01 01:36:57;;;;;;;3.40;1.50;;;17.80;66.80;;;;;;5071915;28;20171;-62
2021/11/01 01:39:22;;;;;;;3.00;1.60;;;17.80;66.80;;;;;;5071247;28;20710;-61
2021/11/01 01:41:48;;;;;;;2.90;1.80;;;17.80;66.80;;;;;;5071468;28;20174;-62
2021/11/01 01:44:14;;;;;;;4.03;1.83;;;17.80;66.80;;;;;;5071457;28;20263;-62
2021/11/01 01:46:39;;;;;;;4.30;2.45;;;17.80;66.80;;;;;;5070692;28;20193;-62
2021/11/01 01:49:05;;;;;;;2.55;1.50;;;17.80;66.70;;;;;;5071855;28;20179;-61
2021/11/01 01:51:31;;;;;;;3.60;1.70;;;17.80;66.70;;;;;;5071495;28;20181;-61
2021/11/01 01:53:57;;;;;;;3.45;2.08;;;17.80;66.80;;;;;;5070945;28;20193;-61
2021/11/01 01:56:25;;;;;;;2.78;1.50;;;17.70;66.70;;;;;;5071725;28;20179;-61
2021/11/01 01:58:54;;;;;;;3.42;1.70;;;17.80;66.70;;;;;;5071292;28;20490;-62
2021/11/01 02:01:20;;;;;;;3.13;1.73;;;17.70;66.60;;;;;;5070740;28;20178;-61
2021/11/01 02:03:48;;;;;;;3.55;1.92;;;17.70;66.70;;;;;;5071515;28;20178;-62
2021/11/01 02:06:18;;;;;;;2.90;1.95;;;17.70;66.70;;;;;;5071072;28;20183;-61
2021/11/01 02:09:04;;;;;;;3.78;1.85;;;17.70;66.60;;;;;;5053895;28;20198;-60
2021/11/01 02:11:54;;;;;;;3.42;1.63;;;17.70;66.60;;;;;;5071440;28;20178;-61
2021/11/01 02:14:23;;;;;;;3.83;1.88;;;17.70;66.60;;;;;;5070823;28;20548;-61
2021/11/01 02:16:49;;;;;;;2.15;1.20;;;17.70;66.60;;;;;;5069898;28;20186;-61
2021/11/01 02:19:16;;;;;;;2.75;1.63;;;17.70;66.60;;;;;;5071420;28;20251;-61
2021/11/01 02:21:50;;;;;;;4.43;1.90;;;17.70;66.50;;;;;;5070621;28;20185;-60
2021/11/01 02:24:34;;;;;;;3.05;1.60;;;17.70;66.50;;;;;;5070454;28;20210;-61
2021/11/01 02:26:59;;;;;;;2.63;1.38;;;17.70;66.50;;;;;;5075307;28;20621;-61
2021/11/01 02:29:26;;;;;;;2.45;1.65;;;17.70;66.40;;;;;;5073267;28;20227;-61
2021/11/01 02:31:52;;;;;;;5.05;2.10;;;17.70;66.40;;;;;;5073885;28;20182;-62
2021/11/01 02:34:18;;;;;;;2.28;1.27;;;17.70;66.40;;;;;;5073509;28;20189;-61
2021/11/01 02:36:45;;;;;;;6.22;2.08;;;17.70;66.40;;;;;;5073834;28;20258;-61
2021/11/01 02:39:10;;;;;;;4.28;1.83;;;17.70;66.50;;;;;;5073989;28;20185;-61
2021/11/01 02:41:36;;;;;;;3.45;1.77;;;17.70;66.40;;;;;;5074204;28;20166;-61
2021/11/01 02:44:04;;;;;;;2.70;1.55;;;17.70;66.30;;;;;;5074772;28;20279;-62
2021/11/01 02:46:30;;;;;;;2.05;1.63;;;17.70;66.30;;;;;;5074613;28;20182;-61
2021/11/01 02:48:55;;;;;;;2.97;1.33;;;17.60;66.40;;;;;;5074619;28;20664;-62
2021/11/01 02:51:22;;;;;;;3.42;1.88;;;17.70;66.30;;;;;;5075053;28;20257;-61
2021/11/01 02:53:48;;;;;;;3.13;1.60;;;17.60;66.30;;;;;;5074651;28;20182;-62
2021/11/01 02:56:14;;;;;;;3.35;1.60;;;17.60;66.20;;;;;;5074078;28;20185;-62
2021/11/01 02:58:40;;;;;;;3.55;1.60;;;17.60;66.20;;;;;;5074430;28;20174;-62
2021/11/01 03:01:07;;;;;;;3.90;1.52;;;17.60;66.20;;;;;;5074551;28;20617;-61
2021/11/01 03:03:34;;;;;;;2.45;1.75;;;17.60;66.20;;;;;;5073905;28;20185;-62
2021/11/01 03:05:59;;;;;;;2.45;1.20;;;17.60;66.30;;;;;;5074681;28;20258;-60
2021/11/01 03:08:25;;;;;;;5.22;1.75;;;17.60;66.30;;;;;;5073311;28;20206;-60
2021/11/01 03:10:52;;;;;;;2.83;1.70;;;17.60;66.20;;;;;;5072348;28;20177;-60
2021/11/01 03:13:18;;;;;;;2.58;1.55;;;17.60;66.20;;;;;;5073167;28;20200;-61
2021/11/01 03:15:44;;;;;;;2.92;1.73;;;17.60;66.20;;;;;;5056612;28;20267;-60
2021/11/01 03:18:09;;;;;;;3.15;1.77;;;17.60;66.20;;;;;;5072442;28;20223;-61
2021/11/01 03:20:41;;;;;;;3.03;1.30;;;17.60;66.20;;;;;;5072939;28;20185;-61
2021/11/01 03:23:15;;;;;;;1.98;1.63;;;17.60;66.00;;;;;;5073320;28;20182;-61
2021/11/01 03:26:08;;;;;;;4.90;1.90;;;17.60;66.20;;;;;;5055487;28;20669;-61
2021/11/01 03:28:34;;;;;;;2.55;1.50;;;17.50;66.10;;;;;;5074339;28;20167;-61
2021/11/01 03:31:01;;;;;;;2.63;1.50;;;17.50;66.10;;;;;;5072311;28;20239;-61
2021/11/01 03:33:29;;;;;;;1.70;1.25;;;17.60;66.30;;;;;;5056522;28;20285;-61
2021/11/01 03:35:55;;;;;;;1.95;1.40;;;17.50;66.20;;;;;;5056598;28;20286;-62
2021/11/01 03:38:21;;;;;;;3.33;1.85;;;17.50;66.20;;;;;;5072375;28;20170;-62
2021/11/01 03:40:47;;;;;;;2.42;1.60;;;17.50;66.20;;;;;;5074021;28;20287;-62
2021/11/01 03:43:17;;;;;;;3.13;1.83;;;17.50;66.10;;;;;;5072657;28;20538;-62
2021/11/01 03:45:42;;;;;;;2.25;1.40;;;17.50;66.10;;;;;;5071867;28;20218;-62
2021/11/01 03:48:11;;;;;;;2.42;1.50;;;17.50;66.00;;;;;;5074057;28;20198;-62
2021/11/01 03:50:42;;;;;;;2.97;1.60;;;17.50;66.10;;;;;;5073607;28;20178;-61
2021/11/01 03:53:07;;;;;;;4.43;1.58;;;17.50;66.00;;;;;;5073179;28;20212;-62
2021/11/01 03:55:33;;;;;;;3.17;1.38;;;17.50;66.90;;;;;;5073826;28;20190;-62
2021/11/01 03:57:59;;;;;;;2.97;1.77;;;17.50;66.10;;;;;;5073603;28;20198;-63
2021/11/01 04:00:27;;;;;;;1.67;1.30;;;17.50;66.10;;;;;;5073055;28;20174;-62
2021/11/01 04:02:53;;;;;;;2.65;1.30;;;17.50;66.30;;;;;;5073342;28;20174;-61
2021/11/01 04:05:18;;;;;;;2.00;1.25;;;17.50;66.20;;;;;;5073357;28;20305;-61
2021/11/01 04:07:44;;;;;;;3.03;1.40;;;17.50;66.30;;;;;;5072351;28;20676;-60
2021/11/01 04:10:10;;;;;;;3.05;1.65;;;17.50;66.20;;;;;;5073723;28;20257;-60
2021/11/01 04:12:36;;;;;;;3.22;1.42;;;17.50;66.20;;;;;;5072409;28;20274;-61
2021/11/01 04:15:07;;;;;;;3.72;1.48;;;17.50;66.20;;;;;;5073364;28;20520;-61
2021/11/01 04:17:43;;;;;;;3.35;1.77;;;17.40;66.10;;;;;;5073243;28;20189;-62
2021/11/01 04:20:26;;;;;;;2.08;1.52;;;17.40;66.10;;;;;;5072765;28;20193;-61
2021/11/01 04:23:03;;;;;;;3.15;1.52;;;17.40;66.10;;;;;;5072831;28;20205;-61
2021/11/01 04:25:30;;;;;;;3.95;2.17;;;17.40;66.10;;;;;;5072819;28;20214;-61
2021/11/01 04:27:57;;;;;;;1.75;1.27;;;17.40;66.00;;;;;;5072324;28;20548;-61
2021/11/01 04:30:24;;;;;;;4.90;1.85;;;17.40;66.10;;;;;;5073077;28;20178;-61
2021/11/01 04:32:54;;;;;;;2.20;1.60;;;17.40;66.00;;;;;;5073104;28;20271;-60
2021/11/01 04:35:27;;;;;;;2.72;1.55;;;17.40;66.10;;;;;;5072356;28;20166;-61
2021/11/01 04:38:36;;;;;;;1.55;1.27;;;17.40;66.10;;;;;;5072785;28;20178;-62
2021/11/01 04:41:15;;;;;;;2.20;1.45;;;17.40;66.10;;;;;;5069844;28;20243;-60
2021/11/01 04:43:58;;;;;;;1.38;1.08;;;17.40;66.00;;;;;;5071786;28;20218;-62
2021/11/01 04:54:32;;;;;;;2.83;1.35;;;17.40;66.00;;;;;;5072211;28;20173;-61
2021/11/01 04:56:57;;;;;;;2.75;1.48;;;17.40;66.10;;;;;;5071869;28;20532;-62
2021/11/01 04:59:23;;;;;;;4.13;1.63;;;17.40;66.00;;;;;;5071314;28;20618;-63
2021/11/01 05:01:53;;;;;;;1.27;1.10;;;17.40;66.00;;;;;;5071538;28;20189;-63
2021/11/01 05:04:28;;;;;;;1.83;1.40;;;17.40;66.10;;;;;;5072452;28;20202;-62
2021/11/01 05:06:58;;;;;;;1.83;1.20;;;17.40;66.00;;;;;;5072388;28;20180;-60
2021/11/01 05:09:31;;;;;;;2.45;1.48;;;17.40;66.10;;;;;;5071835;28;20202;-60
2021/11/01 05:12:09;;;;;;;3.05;1.40;;;17.40;66.00;;;;;;5072454;28;20197;-63
2021/11/01 05:14:39;;;;;;;3.20;1.30;;;17.30;65.80;;;;;;5072010;28;20181;-62
2021/11/01 05:19:42;;;;;;;3.25;1.80;;;17.30;66.00;;;;;;5072040;28;20177;-62
2021/11/01 05:22:25;;;;;;;2.72;1.17;;;17.30;66.00;;;;;;5072395;28;20174;-61
2021/11/01 05:24:58;;;;;;;2.40;1.42;;;17.30;66.00;;;;;;5071065;28;20217;-62
2021/11/01 05:30:08;;;;;;;2.25;1.20;;;17.30;65.90;;;;;;5071640;28;20185;-62
2021/11/01 05:32:34;;;;;;;2.70;1.20;;;17.30;66.00;;;;;;5071976;28;20170;-61
2021/11/01 05:35:00;;;;;;;3.55;1.80;;;17.30;65.90;;;;;;5071877;28;20182;-61
2021/11/01 05:37:25;;;;;;;3.28;1.42;;;17.30;65.90;;;;;;5071436;28;20176;-61
2021/11/01 05:39:51;;;;;;;2.63;1.70;;;17.30;66.00;;;;;;5071660;28;20537;-61
2021/11/01 05:42:16;;;;;;;2.60;1.45;;;17.30;65.90;;;;;;5071988;28;20167;-61
2021/11/01 05:44:42;;;;;;;2.22;1.30;;;17.30;65.90;;;;;;5070740;28;20221;-61
2021/11/01 05:47:09;;;;;;;2.78;1.38;;;17.30;66.00;;;;;;5071911;28;20220;-60
2021/11/01 05:49:37;;;;;;;3.65;1.48;;;17.30;65.90;;;;;;5071351;28;20178;-60
2021/11/01 05:52:06;;;;;;;3.00;1.58;;;17.30;66.00;;;;;;5071372;28;20257;-60
2021/11/01 05:54:32;;;;;;;3.03;1.38;;;17.30;66.00;;;;;;5071742;28;20185;-61
2021/11/01 05:57:08;;;;;;;2.35;1.50;;;17.20;65.80;;;;;;5071854;28;20174;-61
2021/11/01 06:05:20;;;;;;;2.25;1.05;;;17.30;65.90;;;;;;5071067;28;20216;-62
2021/11/01 06:10:23;;;;;;;3.13;1.52;;;17.40;66.80;;;;;;5071816;28;20672;-60
2021/11/01 06:15:33;;;;;;;2.63;1.00;;;17.50;65.70;;;;;;5071436;28;20552;-62
2021/11/01 06:17:59;;;;;;;1.10;1.00;;;17.60;65.40;;;;;;5071797;28;20259;-60
2021/11/01 06:20:24;;;;;;;2.55;1.48;;;17.70;65.50;;;;;;5070763;28;20175;-61
2021/11/01 06:22:52;;;;;;;2.58;1.40;;;17.80;65.20;;;;;;5071252;28;20170;-60
2021/11/01 06:25:18;;;;;;;1.77;1.40;;;17.80;65.00;;;;;;5071600;28;20300;-62
2021/11/01 06:27:44;;;;;;;2.17;1.30;;;17.80;64.90;;;;;;5070528;28;20170;-62
2021/11/01 06:30:16;;;;;;;1.92;1.20;;;17.80;64.90;;;;;;5071575;28;20257;-62
2021/11/01 06:32:47;;;;;;;1.80;1.20;;;17.80;64.90;;;;;;5071041;28;20174;-62
2021/11/01 06:41:15;;;;;;;2.50;1.08;;;17.80;64.90;;;;;;5070005;28;20184;-62
2021/11/01 06:57:17;;;;;;;3.10;1.55;;;17.90;64.80;;;;;;5071437;28;20269;-62
2021/11/01 07:16:33;;;;;;;2.95;1.30;;;17.80;64.80;;;;;;5073888;28;20189;-61
2021/11/01 08:27:18;;;;;;;5.65;1.73;;;18.00;66.00;;;;;;5072359;28;20623;-64
2021/11/01 08:30:01;;;;;;;2.83;1.85;;;18.00;66.00;;;;;;5072639;28;20178;-64
2021/11/01 08:40:52;;;;;;;5.55;1.60;;;18.10;65.40;;;;;;5071883;28;20178;-66
2021/11/01 08:48:57;;;;;;;2.80;1.50;;;18.30;65.10;;;;;;5071864;28;20658;-65
2021/11/01 08:51:47;;;;;;;3.17;1.35;;;18.30;65.20;;;;;;5073038;28;20214;-65
2021/11/01 09:08:05;;;;;;;2.83;1.55;;;18.40;65.20;;;;;;5072107;28;20173;-64
2021/11/01 09:13:32;;;;;;;4.32;1.38;;;18.20;65.50;;;;;;5072317;28;20178;-64
2021/11/01 09:18:50;;;;;;;4.65;1.70;;;18.20;66.00;;;;;;5071921;28;20180;-64
2021/11/01 09:26:43;;;;;;;4.32;1.40;;;18.20;66.10;;;;;;5072000;28;20572;-64
2021/11/01 09:42:22;;;;;;;3.75;1.30;;;18.30;65.70;;;;;;5071810;28;20186;-65
2021/11/01 09:44:48;;;;;;;3.65;1.40;;;18.30;65.70;;;;;;5070305;28;20226;-64
2021/11/01 09:47:14;;;;;;;4.25;1.70;;;18.30;65.80;;;;;;5071963;28;20182;-65
2021/11/01 09:49:40;;;;;;;3.85;1.45;;;18.20;66.00;;;;;;5071366;28;20625;-65
2021/11/01 09:52:08;;;;;;;2.40;1.30;;;18.20;66.00;;;;;;5071337;28;20261;-64
2021/11/01 09:54:37;;;;;;;2.83;1.30;;;18.20;66.20;;;;;;5071425;28;20174;-65
2021/11/01 09:57:08;;;;;;;2.63;1.20;;;18.20;66.30;;;;;;5071714;28;20178;-64
2021/11/01 09:59:38;;;;;;;2.10;1.30;;;18.10;66.50;;;;;;5070531;28;20195;-65
2021/11/01 10:02:06;;;;;;;3.33;1.40;;;18.20;66.30;;;;;;5071798;28;20181;-65
2021/11/01 10:04:32;;;;;;;3.38;1.52;;;18.20;66.10;;;;;;5070673;28;20198;-64
2021/11/01 10:07:24;;;;;;;1.77;1.30;;;18.20;66.10;;;;;;5071651;28;20177;-64
2021/11/01 10:09:54;;;;;;;2.55;1.30;;;18.20;65.90;;;;;;5071326;28;20200;-62
2021/11/01 10:12:22;;;;;;;3.60;1.30;;;18.20;65.90;;;;;;5070641;28;20175;-63
2021/11/01 10:14:53;;;;;;;3.95;1.40;;;18.30;65.80;;;;;;5071413;28;20175;-63
2021/11/01 10:17:35;;;;;;;6.32;1.70;;;18.30;65.70;;;;;;5071391;28;20189;-64
2021/11/01 10:20:08;;;;;;;3.95;1.60;;;18.30;65.70;;;;;;5070705;28;20185;-64
2021/11/01 10:22:35;;;;;;;2.22;1.20;;;18.30;65.50;;;;;;5070819;28;20243;-62
2021/11/01 10:25:00;;;;;;;2.03;1.20;;;18.30;65.60;;;;;;5071135;28;20214;-62
2021/11/01 10:27:37;;;;;;;2.78;1.30;;;18.30;65.30;;;;;;5070791;28;20675;-63
2021/11/01 10:30:04;;;;;;;1.80;0.90;;;18.30;65.50;;;;;;5071169;28;20540;-63
2021/11/01 10:32:31;;;;;;;4.38;2.13;;;18.30;65.40;;;;;;5070338;28;20167;-65
2021/11/01 10:35:20;;;;;;;2.20;1.02;;;18.30;65.40;;;;;;5070964;28;20625;-65
2021/11/01 10:37:59;;;;;;;2.03;1.33;;;18.30;65.50;;;;;;5071113;28;20171;-65
2021/11/01 10:40:27;;;;;;;2.90;1.50;;;18.30;65.50;;;;;;5070502;28;20257;-65
2021/11/01 10:42:53;;;;;;;2.55;1.48;;;18.30;65.40;;;;;;5070880;28;20171;-64
2021/11/01 10:45:40;;;;;;;3.67;1.30;;;18.30;65.30;;;;;;5070844;28;20719;-65
2021/11/01 11:13:22;;;;;;;3.78;1.23;;;18.30;65.70;;;;;;5054136;28;20241;-65
2021/11/01 11:15:40;;;;;;;4.88;1.63;;;18.40;65.40;;;;;;5036061;28;20191;-67
2021/11/01 11:18:14;;;;;;;4.47;1.27;;;18.50;65.10;;;;;;5053275;28;20179;-65
2021/11/01 11:26:09;;;;;;;3.33;1.15;;;18.70;64.70;;;;;;5052814;28;20289;-65
2021/11/01 11:29:04;;;;;;;4.07;1.38;;;18.60;64.70;;;;;;5053996;28;20693;-63
2021/11/01 11:48:23;;;;;;;3.53;1.15;;;18.80;64.90;;;;;;5053968;28;20316;-62
2021/11/01 11:50:50;;;;;;;3.72;1.40;;;18.80;65.00;;;;;;5052719;28;20600;-66
2021/11/01 11:53:28;;;;;;;5.03;1.40;;;18.80;65.10;;;;;;5053880;28;20274;-66
2021/11/01 11:56:11;;;;;;;3.38;1.45;;;18.80;64.90;;;;;;5053666;28;20178;-65
2021/11/01 11:58:38;;;;;;;5.45;1.60;;;18.80;64.80;;;;;;5051714;28;20182;-66
2021/11/01 12:01:23;;;;;;;2.80;1.30;;;18.80;65.00;;;;;;5053595;28;20241;-65
2021/11/01 12:03:49;;;;;;;2.88;1.52;;;18.80;65.10;;;;;;5052515;28;20187;-67
2021/11/01 12:06:17;;;;;;;3.42;1.10;;;18.80;65.00;;;;;;5053326;28;20622;-66
2021/11/01 12:08:48;;;;;;;3.15;1.27;;;18.80;64.80;;;;;;5051741;28;20185;-67
2021/11/01 12:11:30;;;;;;;2.58;1.00;;;18.80;64.80;;;;;;5051525;28;20262;-66
2021/11/01 12:19:12;;;;;;;4.93;1.33;;;18.70;64.80;;;;;;5034875;28;20606;-64
2021/11/01 12:21:39;;;;;;;5.82;1.30;;;18.80;65.00;;;;;;5051752;28;20185;-64
2021/11/01 12:24:12;;;;;;;3.80;1.33;;;18.70;64.90;;;;;;5053204;28;20171;-63
2021/11/01 12:26:43;;;;;;;3.70;1.33;;;18.80;64.60;;;;;;5052045;28;20210;-65
2021/11/01 12:29:10;;;;;;;2.20;1.02;;;18.90;64.60;;;;;;5052120;28;20182;-64
2021/11/01 12:31:36;;;;;;;4.20;1.33;;;18.90;64.60;;;;;;5052739;28;20306;-66
2021/11/01 12:34:05;;;;;;;3.22;1.30;;;18.80;64.70;;;;;;5052256;28;20175;-67
2021/11/01 12:39:09;;;;;;;3.05;1.33;;;18.70;64.80;;;;;;5051844;28;20334;-67
2021/11/01 12:41:58;;;;;;;1.95;1.00;;;18.80;64.60;;;;;;5051088;28;20224;-68
2021/11/01 12:57:37;;;;;;;4.15;1.10;;;18.70;64.90;;;;;;5052236;28;20245;-66
2021/11/01 13:00:04;;;;;;;2.47;1.20;;;18.70;64.60;;;;;;5051831;28;20637;-64
2021/11/01 13:02:34;;;;;;;3.15;1.17;;;18.70;64.20;;;;;;5052066;28;20642;-65
2021/11/01 13:05:01;;;;;;;2.83;1.30;;;18.70;64.50;;;;;;5052445;28;20393;-65
2021/11/01 13:07:47;;;;;;;3.40;1.50;;;18.60;64.40;;;;;;5051822;28;20175;-65
2021/11/01 13:10:23;;;;;;;6.55;1.55;;;18.60;63.60;;;;;;5052163;28;20552;-66
2021/11/01 13:18:13;;;;;;;6.15;1.40;;;18.50;63.80;;;;;;5052322;28;20179;-65
2021/11/01 13:20:48;;;;;;;5.55;1.73;;;18.50;63.60;;;;;;5051604;28;20656;-65
2021/11/01 13:23:14;;;;;;;4.70;1.65;;;18.50;63.60;;;;;;5051390;28;20178;-73
2021/11/01 13:28:29;;;;;;;4.47;1.63;;;18.50;63.60;;;;;;5051786;28;20538;-69
2021/11/01 13:36:38;;;;;;;3.67;1.30;;;18.60;63.20;;;;;;5050842;28;20198;-72
2021/11/01 13:39:07;;;;;;;3.88;1.20;;;18.60;62.50;;;;;;5052005;28;20262;-70
2021/11/01 13:41:33;;;;;;;5.82;1.30;;;18.60;61.30;;;;;;5051674;28;20265;-68
2021/11/01 13:44:08;;;;;;;6.80;1.40;;;18.60;59.80;;;;;;5050860;28;20297;-66
2021/11/01 13:46:37;;;;;;;6.57;1.25;;;18.60;59.70;;;;;;5051242;28;20572;-66
2021/11/01 13:49:03;;;;;;;5.78;1.25;;;18.60;59.70;;;;;;5050313;28;20179;-65
2021/11/01 13:51:29;;;;;;;7.07;1.55;;;18.50;60.00;;;;;;5050700;28;20217;-66
2021/11/01 13:56:42;;;;;;;3.80;1.38;;;18.50;60.50;;;;;;5050795;28;20217;-61
2021/11/01 13:59:23;;;;;;;6.95;1.70;;;18.50;60.50;;;;;;5051493;28;20187;-66
2021/11/01 14:15:55;;;;;;;3.90;1.50;;;18.60;61.10;;;;;;5060712;28;20171;-66
2021/11/01 14:57:19;;;;;;;6.90;1.30;;;18.30;61.90;;;;;;5068156;28;20208;-63
2021/11/01 15:06:43;;;;;;;3.38;1.60;;;18.20;62.10;;;;;;5074315;28;20205;-65
2021/11/01 15:15:17;;;;;;;3.22;1.00;;;18.20;62.40;;;;;;5053951;28;20167;-64
2021/11/01 15:23:00;;;;;;;2.83;1.13;;;18.20;62.60;;;;;;5053861;28;20225;-63
2021/11/01 15:42:27;;;;;;;3.08;1.42;;;18.10;62.90;;;;;;5074269;28;20194;-65
2021/11/01 16:15:21;;;;;;;4.57;1.30;;;18.00;63.00;;;;;;5074133;28;20615;-64
2021/11/01 16:20:51;;;;;;;1.92;0.90;;;18.00;63.30;;;;;;5021665;28;20301;-62
2021/11/01 16:23:49;;;;;;;1.83;0.98;;;17.90;63.30;;;;;;5051965;28;20281;-63
2021/11/01 16:26:18;;;;;;;1.38;1.00;;;17.90;63.30;;;;;;5050319;28;20234;-63
2021/11/01 16:28:48;;;;;;;3.60;1.00;;;17.90;63.40;;;;;;5052937;28;20179;-64
2021/11/01 16:31:24;;;;;;;1.77;1.20;;;17.90;63.30;;;;;;5052254;28;20642;-64
2021/11/01 16:33:51;;;;;;;1.90;1.20;;;17.90;63.30;;;;;;5053002;28;20599;-65
2021/11/01 16:36:29;;;;;;;1.30;0.80;;;17.90;63.40;;;;;;5053187;28;20183;-65
2021/11/01 16:38:56;;;;;;;2.50;1.23;;;17.90;63.40;;;;;;5052419;28;20195;-64
2021/11/01 16:41:24;;;;;;;4.78;1.50;;;17.90;63.40;;;;;;5051559;28;20262;-65
2021/11/01 16:43:50;;;;;;;1.80;0.80;;;17.90;63.40;;;;;;5050618;28;20588;-64
2021/11/01 16:46:16;;;;;;;1.20;0.80;;;17.90;63.50;;;;;;5052171;28;20215;-71
2021/11/01 16:48:45;;;;;;;2.72;1.05;;;17.90;63.50;;;;;;5052499;28;20171;-61
2021/11/01 16:51:11;;;;;;;1.60;0.98;;;17.90;63.50;;;;;;5053101;28;20199;-61
2021/11/01 16:53:40;;;;;;;2.60;1.50;;;17.90;63.40;;;;;;5051809;28;20553;-62
2021/11/01 16:57:12;;;;;;;3.50;1.02;;;17.90;63.50;;;;;;5051271;28;20590;-64
2021/11/01 16:59:10;;;;;;;1.95;1.33;;;17.80;63.40;;;;;;5034283;28;20187;-64
2021/11/01 17:01:38;;;;;;;3.83;1.40;;;17.80;63.20;;;;;;5052021;28;20171;-63
2021/11/01 17:04:08;;;;;;;2.72;1.20;;;17.80;63.10;;;;;;5072522;28;20170;-63
2021/11/01 17:23:00;;;;;;;5.03;1.67;;;17.80;62.80;;;;;;5071678;28;20258;-63
2021/11/01 17:25:44;;;;;;;4.22;1.60;;;17.80;63.00;;;;;;5072201;28;20281;-63
2021/11/01 17:30:53;;;;;;;3.10;1.38;;;17.80;63.10;;;;;;5054504;28;20170;-63
2021/11/01 17:35:59;;;;;;;3.58;1.40;;;17.80;63.20;;;;;;5071085;28;20181;-60
2021/11/01 18:41:40;;;;;;;1.85;1.23;;;17.80;64.00;;;;;;5071370;28;20185;-62
2021/11/01 18:52:10;;;;;;;2.13;1.33;;;17.80;64.00;;;;;;5070661;28;20216;-64
2021/11/01 18:54:38;;;;;;;2.58;1.40;;;17.80;64.00;;;;;;5071106;28;20175;-65
2021/11/01 18:57:04;;;;;;;3.55;2.08;;;17.80;64.10;;;;;;5071178;28;20229;-63
2021/11/01 18:59:30;;;;;;;3.53;1.55;;;17.80;64.20;;;;;;5070479;28;20202;-63
2021/11/01 19:02:30;;;;;;;3.92;1.65;;;17.80;64.10;;;;;;5067193;28;20191;-64
2021/11/01 19:04:51;;;;;;;3.17;1.23;;;17.80;64.20;;;;;;5050163;28;20650;-63
2021/11/01 19:07:33;;;;;;;3.40;1.38;;;17.80;64.40;;;;;;5051535;28;20266;-63
2021/11/01 19:18:30;;;;;;;3.28;1.38;;;17.80;64.30;;;;;;5054690;28;20593;-65
2021/11/01 20:05:15;;;;;;;3.88;1.20;;;17.70;64.80;;;;;;5053020;28;20225;-63
2021/11/01 20:08:06;;;;;;;1.75;1.25;;;17.70;64.80;;;;;;5046138;28;20202;-62
2021/11/01 20:13:04;;;;;;;2.17;1.58;;;17.70;64.80;;;;;;5053314;28;20186;-64
2021/11/01 21:27:21;;;;;;;3.85;1.50;;;17.70;65.50;;;;;;5070397;28;20193;-64
2021/11/01 21:29:47;;;;;;;1.52;1.27;;;17.80;65.30;;;;;;5071801;28;20167;-64
2021/11/01 21:32:12;;;;;;;2.30;1.20;;;17.80;65.20;;;;;;5071307;28;20626;-62
2021/11/01 21:34:41;;;;;;;1.88;1.20;;;17.80;65.10;;;;;;5071017;28;20174;-64
2021/11/01 21:37:07;;;;;;;3.03;1.20;;;17.80;65.20;;;;;;5072005;28;20174;-65
2021/11/01 21:39:33;;;;;;;2.90;1.40;;;17.70;65.60;;;;;;5071483;28;20259;-63
2021/11/01 21:41:58;;;;;;;1.77;1.25;;;17.70;65.60;;;;;;5069866;28;20185;-65
2021/11/01 21:44:25;;;;;;;1.52;1.42;;;17.70;65.30;;;;;;5051664;28;20215;-63
2021/11/01 21:46:50;;;;;;;5.03;1.40;;;17.70;65.10;;;;;;5060234;28;20226;-63
2021/11/01 21:49:16;;;;;;;2.60;1.25;;;17.70;65.10;;;;;;5065451;28;20198;-62
2021/11/01 21:51:43;;;;;;;2.13;1.50;;;17.60;65.00;;;;;;5067886;28;20591;-64
2021/11/01 21:54:29;;;;;;;1.55;1.30;;;17.60;65.00;;;;;;5070691;28;20300;-64
2021/11/01 21:57:09;;;;;;;4.68;1.70;;;17.60;65.00;;;;;;5071182;28;20226;-64
2021/11/01 22:16:42;;;;;;;1.50;1.40;;;17.50;65.40;;;;;;5051230;28;20647;-65
2021/11/01 22:24:03;;;;;;;1.40;1.30;;;17.50;66.20;;;;;;5050452;28;20326;-65
2021/11/01 22:32:20;;;;;;;2.28;1.83;;;17.50;65.30;;;;;;4979116;28;20567;-65
2021/11/01 22:45:21;;;;;;;1.75;1.58;;;17.40;65.20;;;;;;5054481;28;20232;-65
2021/11/01 22:48:13;;;;;;;2.05;1.50;;;17.50;65.30;;;;;;5055012;28;20216;-65
2021/11/01 22:58:43;;;;;;;1.83;1.73;;;17.40;65.20;;;;;;5073892;28;20166;-65
2021/11/01 23:01:23;;;;;;;2.00;1.77;;;17.40;65.20;;;;;;5074646;28;20193;-64
2021/11/01 23:06:49;;;;;;;2.38;1.40;;;17.40;65.10;;;;;;5074030;28;20251;-63
2021/11/01 23:31:29;;;;;;;2.30;1.60;;;17.30;65.00;;;;;;5074546;28;20312;-65
2021/11/01 23:33:54;;;;;;;1.75;1.63;;;17.30;65.00;;;;;;5073303;28;20178;-66
2021/11/01 23:36:20;;;;;;;2.17;1.48;;;17.30;65.10;;;;;;5074062;28;20189;-64
2021/11/01 23:38:45;;;;;;;1.92;1.70;;;17.30;65.20;;;;;;5073973;28;20174;-66
2021/11/01 23:41:11;;;;;;;1.90;1.70;;;17.30;65.20;;;;;;5073575;28;20209;-65
2021/11/01 23:43:36;;;;;;;1.40;1.30;;;17.30;65.20;;;;;;5073725;28;20758;-65
2021/11/01 23:46:02;;;;;;;2.30;1.65;;;17.20;65.20;;;;;;5073784;28;20202;-66
2021/11/01 23:48:28;;;;;;;2.08;1.88;;;17.20;65.20;;;;;;5073437;28;20170;-64
2021/11/01 23:50:54;;;;;;;3.38;1.50;;;17.40;65.40;;;;;;5073804;28;20258;-65
2021/11/01 23:53:34;;;;;;;1.67;1.58;;;17.20;65.20;;;;;;5058750;28;20179;-66
2021/11/01 23:56:00;;;;;;;1.60;1.50;;;17.20;65.30;;;;;;5053354;28;20207;-67
2021/11/01 23:58:26;;;;;;;1.75;1.65;;;17.20;65.30;;;;;;5053765;28;20634;-65
